Time;durP1;ratioP1;P1;durP2;ratioP2;P2;SDS_P1;SDS_P2;PMS_P1;PMS_P2;Temp;Humidity;BMP_temperature;BMP_pressure;BME280_temperature;BME280_humidity;BME280_pressure;Samples;Min_cycle;Max_cycle;Signal;HPM_P1;HPM_P2
2021/12/09 00:02:40;;;;;;;45.50;24.42;;;;;;;6.15;72.50;97777.69;5102620;29;20071;-68
2021/12/09 00:05:31;;;;;;;47.35;24.77;;;;;;;5.94;73.42;97768.22;5102340;29;20090;-67
2021/12/09 00:08:21;;;;;;;54.22;25.88;;;;;;;5.85;73.53;97784.81;5102103;29;20536;-67
2021/12/09 00:11:11;;;;;;;53.92;26.75;;;;;;;5.89;73.64;97778.28;5113964;28;20071;-67
2021/12/09 00:14:01;;;;;;;53.75;26.02;;;;;;;6.09;73.21;97782.56;5102426;29;20470;-67
2021/12/09 00:16:53;;;;;;;53.63;27.73;;;;;;;6.08;73.07;97786.16;5101895;29;20051;-68
2021/12/09 00:19:43;;;;;;;57.90;26.92;;;;;;;6.08;73.36;97787.97;5102334;29;20053;-67
2021/12/09 00:22:33;;;;;;;61.95;28.30;;;;;;;6.24;73.38;97782.91;5101512;29;20095;-67
2021/12/09 00:25:23;;;;;;;65.90;29.10;;;;;;;6.19;72.83;97786.94;5102368;29;20442;-67
2021/12/09 00:28:14;;;;;;;64.50;27.90;;;;;;;6.08;73.94;97783.50;5102174;29;20194;-67
2021/12/09 00:31:04;;;;;;;58.25;27.58;;;;;;;6.10;73.54;97791.28;5102198;29;20054;-67
2021/12/09 00:33:56;;;;;;;60.97;26.45;;;;;;;6.16;73.56;97790.72;5101028;29;20075;-67
2021/12/09 00:37:00;;;;;;;66.35;27.35;;;;;;;5.80;74.51;97802.84;5101727;29;20059;-67
2021/12/09 00:39:51;;;;;;;50.60;20.83;;;;;;;5.46;75.46;97797.22;5102643;29;20052;-67
2021/12/09 00:42:41;;;;;;;42.97;19.13;;;;;;;5.20;75.68;97795.22;5115645;28;20050;-67
2021/12/09 00:45:31;;;;;;;26.52;11.90;;;;;;;5.50;74.03;97794.19;5102534;29;20531;-67
2021/12/09 00:48:21;;;;;;;26.33;9.63;;;;;;;4.85;75.23;97803.63;5101308;29;20054;-68
2021/12/09 00:51:12;;;;;;;26.63;11.15;;;;;;;5.59;72.64;97792.50;5098729;29;20058;-67
2021/12/09 00:54:03;;;;;;;18.17;8.77;;;;;;;5.69;72.55;97808.25;5111158;29;20050;-67
2021/12/09 00:56:52;;;;;;;18.02;7.60;;;;;;;5.80;72.96;97800.22;5106399;29;20622;-67
2021/12/09 00:59:42;;;;;;;12.18;6.82;;;;;;;5.75;72.20;97807.69;5098835;29;20058;-67
2021/12/09 01:02:32;;;;;;;22.38;6.25;;;;;;;5.96;71.70;97794.38;5100551;29;20043;-67
2021/12/09 01:05:22;;;;;;;12.27;4.55;;;;;;;5.81;70.87;97801.88;5100951;29;20056;-68
2021/12/09 01:08:13;;;;;;;10.98;4.30;;;;;;;5.94;71.26;97812.13;5098464;29;20063;-67
2021/12/09 01:11:04;;;;;;;13.20;4.00;;;;;;;5.93;71.19;97821.81;5101735;29;20068;-68
2021/12/09 01:13:54;;;;;;;13.43;4.65;;;;;;;5.96;71.23;97816.25;5099389;29;20044;-67
2021/12/09 01:16:45;;;;;;;13.68;4.90;;;;;;;5.99;71.34;97815.13;5112392;29;20485;-67
2021/12/09 01:19:36;;;;;;;14.77;4.97;;;;;;;6.00;71.58;97807.09;5101158;29;20182;-67
2021/12/09 01:22:29;;;;;;;13.93;5.45;;;;;;;5.95;71.46;97801.44;5101106;29;20059;-68
2021/12/09 01:25:20;;;;;;;13.85;5.40;;;;;;;5.87;72.34;97803.94;5103493;29;20191;-67
2021/12/09 01:28:18;;;;;;;18.77;5.93;;;;;;;6.01;72.21;97802.66;5102290;29;20054;-67
2021/12/09 01:31:09;;;;;;;10.27;6.20;;;;;;;5.89;72.31;97807.22;5105406;29;20477;-68
2021/12/09 01:34:03;;;;;;;17.38;8.40;;;;;;;5.89;72.15;97815.97;5105652;29;20044;-67
2021/12/09 01:36:53;;;;;;;23.02;9.50;;;;;;;5.97;71.44;97815.28;5105086;29;20055;-67
2021/12/09 01:39:43;;;;;;;23.63;10.40;;;;;;;6.11;72.06;97820.06;5105130;29;20055;-67
2021/12/09 01:42:34;;;;;;;29.23;10.27;;;;;;;6.06;71.24;97832.00;5104994;29;20502;-67
2021/12/09 01:45:26;;;;;;;20.58;10.82;;;;;;;6.08;71.59;97830.88;5111094;29;20550;-68
2021/12/09 01:48:16;;;;;;;27.23;11.43;;;;;;;6.08;72.14;97841.41;5113496;28;20055;-67
2021/12/09 01:51:07;;;;;;;27.58;10.73;;;;;;;5.97;72.31;97835.50;5105108;29;20073;-67
2021/12/09 01:53:57;;;;;;;27.35;13.15;;;;;;;5.97;71.79;97836.34;5108137;29;20106;-68
2021/12/09 01:56:48;;;;;;;31.65;13.85;;;;;;;5.89;72.46;97836.16;5111376;28;20171;-67
2021/12/09 01:59:38;;;;;;;30.67;14.48;;;;;;;6.01;72.26;97829.81;5104553;29;20047;-67
2021/12/09 02:02:28;;;;;;;34.45;15.95;;;;;;;5.72;72.46;97831.66;5103374;29;20107;-68
2021/12/09 02:05:41;;;;;;;31.00;14.90;;;;;;;5.57;74.28;97821.59;5103165;29;20079;-68
2021/12/09 02:08:31;;;;;;;31.17;15.52;;;;;;;5.90;72.73;97824.69;5104919;29;20055;-67
2021/12/09 02:11:21;;;;;;;36.05;15.65;;;;;;;5.81;72.80;97817.66;5104874;29;20051;-67
2021/12/09 02:14:12;;;;;;;42.55;16.40;;;;;;;5.61;72.63;97799.28;5105063;29;20628;-67
2021/12/09 02:17:03;;;;;;;38.55;18.15;;;;;;;5.79;72.78;97830.94;5113324;29;20095;-67
2021/12/09 02:19:56;;;;;;;43.70;18.38;;;;;;;5.87;72.18;97833.69;5109335;29;20049;-67
2021/12/09 02:22:48;;;;;;;45.50;18.80;;;;;;;5.31;74.94;97842.34;5104355;29;20063;-67
2021/12/09 02:25:44;;;;;;;44.08;19.15;;;;;;;5.58;74.05;97844.28;5103083;29;20050;-67
2021/12/09 02:28:35;;;;;;;42.05;19.75;;;;;;;5.34;74.00;97855.22;5104484;29;20055;-67
2021/12/09 02:31:28;;;;;;;43.85;19.08;;;;;;;5.59;74.08;97871.38;5104615;29;20059;-67
2021/12/09 02:34:18;;;;;;;54.13;19.50;;;;;;;5.60;73.67;97879.16;5103803;29;20050;-68
2021/12/09 02:37:10;;;;;;;45.30;19.00;;;;;;;5.58;73.21;97885.50;5103589;29;20705;-67
2021/12/09 02:40:03;;;;;;;36.83;17.08;;;;;;;5.26;75.19;97883.16;5104280;29;20430;-67
2021/12/09 02:42:53;;;;;;;46.10;18.10;;;;;;;5.23;74.74;97886.06;5103924;29;20524;-67
2021/12/09 02:45:51;;;;;;;49.35;18.23;;;;;;;5.52;74.11;97886.06;5105680;29;20050;-67
2021/12/09 02:48:42;;;;;;;37.80;17.55;;;;;;;6.02;72.58;97899.03;5112823;28;20051;-67
2021/12/09 02:51:34;;;;;;;40.45;17.85;;;;;;;5.83;72.99;97894.63;5102656;29;20135;-68
2021/12/09 02:54:25;;;;;;;37.53;15.68;;;;;;;5.97;71.54;97896.84;5104999;29;20048;-67
2021/12/09 02:57:15;;;;;;;42.38;17.65;;;;;;;5.68;72.99;97891.59;5108517;29;20150;-68
2021/12/09 03:00:09;;;;;;;42.90;16.48;;;;;;;5.05;75.18;97889.38;5104427;29;20062;-68
2021/12/09 03:03:00;;;;;;;42.03;16.70;;;;;;;5.16;75.19;97870.84;5103748;29;20549;-67
2021/12/09 03:05:53;;;;;;;42.75;15.40;;;;;;;5.36;73.77;97876.09;5103120;29;20537;-69
2021/12/09 03:08:43;;;;;;;43.83;15.98;;;;;;;5.48;72.49;97863.66;5103898;29;20425;-68
2021/12/09 03:11:34;;;;;;;39.78;14.68;;;;;;;5.36;73.46;97878.72;5103353;29;20087;-69
2021/12/09 03:14:24;;;;;;;35.13;15.07;;;;;;;5.57;73.93;97879.44;5103752;29;20075;-69
2021/12/09 03:17:14;;;;;;;31.02;13.85;;;;;;;5.21;73.97;97873.06;5110122;29;20106;-68
2021/12/09 03:20:08;;;;;;;38.08;15.20;;;;;;;5.63;72.49;97885.94;5107015;29;20050;-69
2021/12/09 03:22:58;;;;;;;38.97;14.77;;;;;;;5.05;74.79;97893.78;5100917;29;20050;-70
2021/12/09 03:25:50;;;;;;;33.05;13.07;;;;;;;5.39;73.66;97888.97;5102536;29;20229;-66
2021/12/09 03:28:40;;;;;;;33.88;12.80;;;;;;;4.64;76.64;97885.13;5103663;29;20078;-67
2021/12/09 03:31:31;;;;;;;38.40;12.60;;;;;;;4.49;76.95;97892.53;5103558;29;20063;-67
2021/12/09 03:34:24;;;;;;;31.48;12.60;;;;;;;5.03;74.92;97882.56;5103657;29;20094;-67
2021/12/09 03:37:17;;;;;;;32.35;12.20;;;;;;;4.39;76.26;97891.66;5103440;29;20700;-67
2021/12/09 03:40:09;;;;;;;36.95;12.52;;;;;;;4.83;75.33;97889.59;5103270;29;20586;-67
2021/12/09 03:42:59;;;;;;;27.92;12.65;;;;;;;4.93;75.13;97885.19;5102817;29;20186;-67
2021/12/09 03:45:53;;;;;;;37.60;12.32;;;;;;;4.88;75.35;97884.78;5102458;29;20063;-68
2021/12/09 03:48:43;;;;;;;45.85;12.55;;;;;;;5.51;73.89;97900.19;5102414;29;20106;-68
2021/12/09 03:51:35;;;;;;;32.83;12.57;;;;;;;5.48;72.36;97898.66;5113450;29;20548;-68
2021/12/09 03:54:26;;;;;;;31.38;11.50;;;;;;;5.65;72.40;97897.13;5105767;29;20541;-67
2021/12/09 03:57:16;;;;;;;30.98;11.45;;;;;;;5.82;71.78;97895.59;5107279;29;20111;-68
2021/12/09 04:00:08;;;;;;;31.80;11.20;;;;;;;5.65;71.29;97897.13;5102841;29;20506;-68
2021/12/09 04:02:59;;;;;;;34.35;11.30;;;;;;;5.25;73.46;97899.91;5102518;29;20047;-67
2021/12/09 04:05:50;;;;;;;35.58;11.95;;;;;;;5.24;73.03;97899.06;5101603;29;20146;-68
2021/12/09 04:08:40;;;;;;;32.15;11.10;;;;;;;5.56;71.59;97898.81;5102803;29;20053;-69
2021/12/09 04:11:31;;;;;;;34.25;11.23;;;;;;;5.33;72.28;97903.50;5102248;29;20446;-68
2021/12/09 04:14:22;;;;;;;22.80;10.90;;;;;;;5.56;71.55;97895.31;5102496;29;20529;-68
2021/12/09 04:17:13;;;;;;;37.97;11.57;;;;;;;5.06;72.53;97906.78;5102139;29;20055;-69
2021/12/09 04:20:06;;;;;;;30.02;10.43;;;;;;;5.27;72.10;97898.81;5109476;29;20780;-68
2021/12/09 04:22:56;;;;;;;31.77;10.93;;;;;;;5.14;72.03;97903.50;5108783;29;20126;-67
2021/12/09 04:25:46;;;;;;;30.90;11.27;;;;;;;5.06;72.03;97905.94;5100474;29;20522;-67
2021/12/09 04:28:38;;;;;;;28.33;9.85;;;;;;;4.86;72.97;97897.19;5100587;29;20090;-67
2021/12/09 04:31:29;;;;;;;27.50;10.32;;;;;;;4.74;73.47;97908.81;5100797;29;20074;-68
2021/12/09 04:34:20;;;;;;;27.80;9.95;;;;;;;5.23;72.32;97928.97;5101807;29;20725;-67
2021/12/09 04:37:10;;;;;;;27.23;9.80;;;;;;;4.79;73.27;97922.34;5101903;29;20050;-67
2021/12/09 04:40:00;;;;;;;24.30;8.90;;;;;;;4.39;74.47;97923.16;5102292;29;20058;-67
2021/12/09 04:42:51;;;;;;;31.00;9.20;;;;;;;4.44;74.20;97934.09;5100891;29;20545;-67
2021/12/09 04:45:41;;;;;;;27.27;8.30;;;;;;;4.89;72.74;97937.16;5103809;29;20134;-67
2021/12/09 04:48:31;;;;;;;21.50;8.82;;;;;;;4.79;73.35;97940.72;5113582;29;20058;-67
2021/12/09 04:51:21;;;;;;;23.73;10.23;;;;;;;4.90;72.49;97948.50;5113704;29;20549;-67
2021/12/09 04:54:11;;;;;;;28.42;9.40;;;;;;;4.95;72.78;97946.31;5103111;28;20076;-67
2021/12/09 04:57:04;;;;;;;28.40;10.60;;;;;;;5.25;70.76;97958.53;5101597;29;20086;-67
2021/12/09 04:59:54;;;;;;;32.50;10.35;;;;;;;4.68;73.91;97965.28;5104836;29;20052;-67
2021/12/09 05:03:01;;;;;;;;;;;;;;;5.15;72.05;97969.03;5099766;29;20079;-67
2021/12/09 05:05:55;;;;;;;20.07;7.50;;;;;;;5.13;72.13;97970.97;5098265;29;19929;-67
2021/12/09 05:08:48;;;;;;;30.27;10.30;;;;;;;5.12;71.52;97969.31;5119866;29;20047;-67
2021/12/09 05:14:28;;;;;;;29.52;9.07;;;;;;;5.18;71.19;97981.91;5126002;29;20485;-67
2021/12/09 05:17:18;;;;;;;28.40;10.50;;;;;;;5.13;72.07;97976.25;5116164;29;20054;-68
2021/12/09 05:20:09;;;;;;;29.15;10.55;;;;;;;5.11;71.52;97975.53;5086261;29;20107;-67
2021/12/09 05:22:59;;;;;;;29.65;10.75;;;;;;;5.16;71.38;97983.81;5085965;29;20055;-66
2021/12/09 05:25:52;;;;;;;21.30;9.23;;;;;;;5.09;70.95;97998.47;5096788;29;20083;-67
2021/12/09 05:28:52;;;;;;;27.02;8.20;;;;;;;5.17;70.94;98000.44;5119453;29;20055;-68
2021/12/09 05:34:52;;;;;;;32.40;8.18;;;;;;;5.16;71.95;98022.41;5105687;29;20040;-66
2021/12/09 05:37:44;;;;;;;26.27;9.30;;;;;;;5.16;70.27;98004.84;5104573;29;20191;-66
2021/12/09 05:40:34;;;;;;;30.58;9.65;;;;;;;4.89;73.27;98033.53;5105335;29;20043;-65
2021/12/09 05:43:26;;;;;;;28.55;8.60;;;;;;;4.88;72.12;98037.13;5105427;29;20574;-68
2021/12/09 05:46:17;;;;;;;27.73;9.02;;;;;;;4.88;71.91;98023.97;5107728;29;20047;-65
2021/12/09 05:49:08;;;;;;;32.83;9.20;;;;;;;5.13;71.47;98041.94;5105234;29;20047;-67
2021/12/09 05:51:58;;;;;;;27.83;8.32;;;;;;;5.12;70.44;98050.75;5110720;29;20050;-67
2021/12/09 05:54:48;;;;;;;23.40;7.55;;;;;;;4.88;71.85;98042.38;5120572;29;20051;-65
2021/12/09 05:57:39;;;;;;;18.67;7.63;;;;;;;5.15;70.75;98042.63;5115286;29;20046;-67
2021/12/09 06:00:29;;;;;;;20.65;8.32;;;;;;;5.12;70.38;98042.03;5111800;29;20087;-68
2021/12/09 06:03:21;;;;;;;23.52;7.40;;;;;;;4.95;70.79;98046.13;5108123;29;20054;-65
2021/12/09 06:06:11;;;;;;;29.38;7.80;;;;;;;5.36;69.50;98049.59;5106603;29;20066;-66
2021/12/09 06:09:04;;;;;;;21.40;8.25;;;;;;;5.25;69.51;98049.69;5105967;29;20069;-66
2021/12/09 06:11:54;;;;;;;29.23;8.50;;;;;;;5.25;70.03;98055.78;5118282;29;20058;-67
2021/12/09 06:14:44;;;;;;;19.92;8.65;;;;;;;5.05;70.90;98056.69;5093218;29;20186;-70
2021/12/09 06:17:34;;;;;;;26.85;8.60;;;;;;;4.83;70.61;98061.13;5100605;29;20079;-71
2021/12/09 06:20:25;;;;;;;28.65;8.45;;;;;;;4.87;71.13;98061.72;5098857;29;20075;-70
2021/12/09 06:23:16;;;;;;;21.23;8.77;;;;;;;4.90;70.81;98058.81;5106899;29;20414;-65
2021/12/09 06:26:07;;;;;;;31.35;8.77;;;;;;;4.87;70.91;98054.69;5084832;29;20055;-65
2021/12/09 06:28:57;;;;;;;23.20;8.30;;;;;;;4.94;70.79;98065.50;5098750;29;20690;-67
2021/12/09 06:31:47;;;;;;;26.15;9.48;;;;;;;4.78;71.02;98038.88;5104539;29;20102;-66
2021/12/09 06:34:38;;;;;;;27.35;8.43;;;;;;;4.70;70.87;98047.38;5090277;29;20055;-66
2021/12/09 06:37:30;;;;;;;30.95;8.38;;;;;;;4.78;71.11;98059.88;5104073;29;20063;-68
2021/12/09 06:40:22;;;;;;;28.58;8.95;;;;;;;4.84;70.81;98057.56;5104208;29;20074;-66
2021/12/09 06:43:12;;;;;;;27.02;9.18;;;;;;;4.68;70.93;98047.53;5104108;29;20195;-67
2021/12/09 06:46:02;;;;;;;22.35;8.25;;;;;;;4.48;71.46;98020.31;5103770;29;20059;-68
2021/12/09 06:48:53;;;;;;;21.45;8.00;;;;;;;4.68;70.69;98063.28;5104004;29;20059;-66
2021/12/09 06:51:43;;;;;;;31.60;9.07;;;;;;;4.67;70.88;98051.13;5103901;29;20422;-67
2021/12/09 06:54:33;;;;;;;28.40;9.07;;;;;;;4.65;70.79;98060.91;5104157;29;20043;-68
2021/12/09 06:57:23;;;;;;;26.55;9.13;;;;;;;4.76;71.00;98064.41;5103482;29;20044;-65
2021/12/09 07:00:29;;;;;;;30.58;9.60;;;;;;;4.71;71.75;98059.56;5104042;29;20058;-65
2021/12/09 07:03:21;;;;;;;27.75;9.65;;;;;;;4.45;72.28;98059.13;5103349;29;20087;-65
2021/12/09 07:06:12;;;;;;;41.38;10.35;;;;;;;4.44;72.28;98055.69;5102076;29;20529;-64
2021/12/09 07:09:04;;;;;;;24.15;9.57;;;;;;;4.74;71.20;98061.09;5102494;29;20752;-68
2021/12/09 07:11:58;;;;;;;32.03;9.95;;;;;;;4.66;71.58;98057.31;5102559;29;20087;-68
2021/12/09 07:14:49;;;;;;;27.95;9.68;;;;;;;4.71;71.14;98055.16;5103757;29;20530;-68
2021/12/09 07:17:39;;;;;;;29.63;9.98;;;;;;;4.91;70.83;98060.50;5103374;29;20494;-65
2021/12/09 07:20:31;;;;;;;24.38;10.10;;;;;;;4.84;70.83;98065.44;5103659;29;20107;-65
2021/12/09 07:23:21;;;;;;;34.10;10.95;;;;;;;4.86;71.59;98067.91;5103384;29;20051;-68
2021/12/09 07:26:11;;;;;;;22.00;9.80;;;;;;;4.85;71.25;98071.53;5102949;29;20055;-68
2021/12/09 07:29:02;;;;;;;30.42;10.00;;;;;;;4.94;70.36;98081.25;5103437;29;20206;-68
2021/12/09 07:31:52;;;;;;;28.08;10.40;;;;;;;4.84;70.79;98046.22;5103099;29;20649;-68
2021/12/09 07:34:42;;;;;;;27.17;9.90;;;;;;;4.97;71.42;98083.63;5103195;29;20574;-68
2021/12/09 07:37:36;;;;;;;27.63;10.07;;;;;;;4.96;70.91;98071.44;5102831;29;20064;-67
2021/12/09 07:40:27;;;;;;;24.52;10.02;;;;;;;4.71;71.30;98073.53;5103315;29;20434;-65
2021/12/09 07:43:17;;;;;;;30.63;10.20;;;;;;;4.98;70.98;98076.56;5103036;29;20070;-64
2021/12/09 07:46:08;;;;;;;30.10;10.70;;;;;;;4.78;71.90;98086.13;5098304;29;20067;-66
2021/12/09 07:48:58;;;;;;;25.33;10.00;;;;;;;4.67;72.20;98087.06;5101098;29;20137;-66
2021/12/09 07:51:49;;;;;;;25.05;10.63;;;;;;;5.02;70.60;98093.72;5114684;29;20043;-68
2021/12/09 07:54:40;;;;;;;26.23;10.45;;;;;;;4.85;71.17;98106.50;5122818;29;20047;-67
2021/12/09 07:57:31;;;;;;;31.65;10.05;;;;;;;4.91;71.60;98102.53;5121147;29;20047;-66
2021/12/09 08:00:27;;;;;;;23.27;10.85;;;;;;;5.22;70.32;98103.34;5103991;29;20107;-67
2021/12/09 08:03:17;;;;;;;29.80;10.77;;;;;;;4.85;71.23;98109.13;5102745;29;20058;-67
2021/12/09 08:06:07;;;;;;;28.55;10.93;;;;;;;5.13;71.18;98099.75;5101662;29;20039;-66
2021/12/09 08:08:58;;;;;;;32.97;11.60;;;;;;;5.00;71.41;98096.50;5102555;29;20062;-67
2021/12/09 08:11:48;;;;;;;22.80;11.35;;;;;;;5.13;71.06;98102.38;5102245;29;20061;-68
2021/12/09 08:14:38;;;;;;;28.88;12.32;;;;;;;5.10;71.63;98102.63;5102898;29;20642;-67
2021/12/09 08:17:45;;;;;;;27.38;11.93;;;;;;;5.10;70.64;98084.22;5102530;29;20760;-65
2021/12/09 08:20:37;;;;;;;24.85;11.45;;;;;;;4.83;71.16;98083.94;5102583;29;20114;-66
2021/12/09 08:23:28;;;;;;;35.90;14.52;;;;;;;5.02;70.96;98073.53;5102431;29;20059;-65
2021/12/09 08:26:20;;;;;;;37.35;15.73;;;;;;;4.83;71.17;98089.19;5101931;29;20058;-66
2021/12/09 08:29:11;;;;;;;30.00;14.40;;;;;;;5.28;71.21;98108.09;5102268;29;20544;-67
2021/12/09 08:32:01;;;;;;;34.63;13.60;;;;;;;5.31;71.31;98110.47;5100949;29;20051;-67
2021/12/09 08:34:50;;;;;;;33.28;14.27;;;;;;;4.89;72.68;98107.06;5102149;29;20054;-67
2021/12/09 08:37:40;;;;;;;29.90;13.13;;;;;;;4.50;73.26;98114.69;5101886;29;20150;-67
2021/12/09 08:40:32;;;;;;;27.38;13.45;;;;;;;4.86;72.32;98109.94;5101802;29;20190;-67
2021/12/09 08:43:23;;;;;;;33.47;14.35;;;;;;;5.30;71.58;98119.31;5100964;29;20170;-67
2021/12/09 08:46:15;;;;;;;33.78;14.45;;;;;;;5.19;71.27;98117.59;5101970;29;20052;-66
2021/12/09 08:49:08;;;;;;;27.23;13.82;;;;;;;5.54;70.12;98116.34;5101273;29;20047;-68
2021/12/09 08:51:58;;;;;;;29.63;15.95;;;;;;;5.22;71.47;98126.19;5102030;29;20054;-68
2021/12/09 08:54:48;;;;;;;34.35;17.20;;;;;;;5.55;71.00;98127.69;5102425;29;20514;-67
2021/12/09 08:57:39;;;;;;;39.83;15.55;;;;;;;5.64;70.48;98129.53;5101470;29;20059;-67
2021/12/09 09:00:32;;;;;;;30.63;15.75;;;;;;;5.69;70.80;98131.75;5102091;29;20062;-66
2021/12/09 09:03:22;;;;;;;34.95;16.08;;;;;;;4.93;72.22;98139.97;5101952;29;20606;-67
2021/12/09 09:06:13;;;;;;;31.55;16.13;;;;;;;5.36;71.34;98138.97;5101092;29;20134;-68
2021/12/09 09:09:04;;;;;;;30.95;16.80;;;;;;;5.73;70.86;98151.56;5101929;29;20208;-67
2021/12/09 09:11:54;;;;;;;36.25;17.67;;;;;;;5.77;70.15;98109.09;5101543;29;20138;-67
2021/12/09 09:14:44;;;;;;;47.75;17.15;;;;;;;5.84;70.65;98161.97;5102056;29;20138;-67
2021/12/09 09:17:35;;;;;;;33.53;16.65;;;;;;;5.97;69.60;98165.22;5101965;29;20058;-67
2021/12/09 09:20:29;;;;;;;29.50;15.00;;;;;;;5.50;70.99;98143.06;5100980;29;20422;-67
2021/12/09 09:23:20;;;;;;;34.37;15.67;;;;;;;6.07;69.95;98154.72;5102482;29;20087;-67
2021/12/09 09:26:11;;;;;;;33.47;17.65;;;;;;;5.81;71.02;98135.94;5102000;29;20122;-65
2021/12/09 09:29:01;;;;;;;38.47;15.93;;;;;;;6.30;68.35;98156.16;5102065;29;20066;-67
2021/12/09 09:31:52;;;;;;;33.15;15.90;;;;;;;5.99;70.86;98167.72;5101700;29;20107;-67
2021/12/09 09:34:43;;;;;;;34.88;15.90;;;;;;;5.79;70.51;98172.06;5101722;29;20194;-69
2021/12/09 09:37:33;;;;;;;33.47;15.55;;;;;;;5.04;74.09;98168.84;5101399;29;20103;-68
2021/12/09 09:40:41;;;;;;;34.58;17.33;;;;;;;5.33;72.94;98147.97;5101826;29;20062;-67
2021/12/09 09:44:18;;;;;;;35.10;16.40;;;;;;;5.47;71.75;98156.47;5100701;29;20195;-67
2021/12/09 09:46:44;;;;;;;39.10;16.40;;;;;;;5.49;72.15;98183.44;5084079;29;20664;-68
2021/12/09 09:49:34;;;;;;;40.55;17.23;;;;;;;5.80;71.45;98184.28;5085609;29;20107;-69
2021/12/09 09:52:25;;;;;;;32.70;16.88;;;;;;;5.61;71.68;98170.06;5085294;29;20483;-67
2021/12/09 09:55:20;;;;;;;30.67;15.73;;;;;;;5.65;72.09;98192.50;5085619;29;20047;-67
2021/12/09 09:58:11;;;;;;;31.95;15.70;;;;;;;5.44;72.82;98186.47;5085336;29;20055;-68
2021/12/09 10:01:01;;;;;;;31.02;15.25;;;;;;;5.85;69.95;98166.28;5096024;29;20060;-68
2021/12/09 10:03:58;;;;;;;38.05;16.48;;;;;;;5.87;72.01;98180.97;5106625;29;20051;-67
2021/12/09 10:06:49;;;;;;;38.70;17.73;;;;;;;6.41;69.71;98191.22;5121859;29;20054;-68
2021/12/09 10:09:40;;;;;;;47.15;18.65;;;;;;;6.79;68.26;98187.75;5124881;29;20058;-67
2021/12/09 10:12:30;;;;;;;29.73;15.95;;;;;;;6.49;69.21;98173.75;5085018;29;20058;-68
2021/12/09 10:15:41;;;;;;;32.13;16.08;;;;;;;6.22;69.41;98192.00;5084361;29;20054;-68
2021/12/09 10:18:42;;;;;;;35.65;15.32;;;;;;;5.89;70.10;98192.19;5085148;29;20051;-66
2021/12/09 10:21:32;;;;;;;27.02;15.25;;;;;;;6.39;69.11;98180.81;5099021;29;20103;-65
2021/12/09 10:24:25;;;;;;;27.40;15.02;;;;;;;6.42;68.91;98166.53;5104504;29;20123;-66
2021/12/09 10:27:28;;;;;;;31.70;15.38;;;;;;;6.96;67.30;98189.69;5104306;29;20544;-66
2021/12/09 10:30:21;;;;;;;32.22;14.57;;;;;;;6.39;69.21;98175.56;5104310;29;20071;-66
2021/12/09 10:33:18;;;;;;;27.13;15.35;;;;;;;5.65;71.20;98195.13;5104189;29;20119;-67
2021/12/09 10:36:08;;;;;;;25.60;14.55;;;;;;;5.42;72.61;98191.84;5104284;29;20199;-67
2021/12/09 10:39:39;;;;;;;32.17;15.50;;;;;;;6.61;69.35;98195.50;5104412;29;20055;-67
2021/12/09 10:42:46;;;;;;;28.70;14.00;;;;;;;5.62;71.75;98191.94;5104024;29;20468;-67
2021/12/09 10:45:38;;;;;;;28.60;15.45;;;;;;;6.24;70.65;98197.97;5104166;29;20067;-66
2021/12/09 10:48:40;;;;;;;32.95;15.55;;;;;;;5.68;71.87;98185.31;5104205;29;20075;-68
2021/12/09 10:51:36;;;;;;;28.80;15.10;;;;;;;5.51;71.74;98194.66;5103899;29;20063;-67
2021/12/09 10:54:35;;;;;;;33.42;16.15;;;;;;;5.49;72.09;98173.75;5104128;29;20183;-66
2021/12/09 10:57:31;;;;;;;43.30;18.58;;;;;;;5.15;73.48;98181.88;5103151;29;20070;-67
2021/12/09 11:00:27;;;;;;;35.95;19.00;;;;;;;5.31;73.33;98191.13;5104140;29;20055;-67
2021/12/09 11:03:17;;;;;;;40.28;20.40;;;;;;;5.06;73.68;98189.72;5103697;29;20071;-67
2021/12/09 11:06:32;;;;;;;38.25;20.58;;;;;;;5.47;74.04;98188.84;5102892;29;20050;-66
2021/12/09 11:09:23;;;;;;;39.00;19.20;;;;;;;5.23;72.70;98177.78;5103980;29;20552;-67
2021/12/09 11:12:28;;;;;;;34.13;18.27;;;;;;;5.57;72.14;98178.38;5084172;29;20055;-66
2021/12/09 11:15:19;;;;;;;33.05;18.13;;;;;;;5.53;72.50;98172.53;5084553;29;20047;-67
2021/12/09 11:18:41;;;;;;;36.97;18.85;;;;;;;5.40;73.03;98175.38;5084026;29;20075;-67
2021/12/09 11:21:37;;;;;;;36.88;18.70;;;;;;;5.88;71.47;98166.84;5099116;29;20107;-67
2021/12/09 11:24:35;;;;;;;32.78;18.02;;;;;;;6.34;70.16;98170.69;5103386;29;20047;-67
2021/12/09 11:27:26;;;;;;;36.38;18.25;;;;;;;5.90;70.87;98158.81;5103000;29;20096;-67
2021/12/09 11:30:18;;;;;;;35.10;16.20;;;;;;;5.53;70.87;98153.28;5103356;29;20683;-67
2021/12/09 11:33:08;;;;;;;28.98;16.08;;;;;;;5.72;69.98;98181.47;5103140;29;20418;-67
2021/12/09 11:36:01;;;;;;;31.02;15.75;;;;;;;5.84;70.56;98177.78;5103554;29;20065;-67
2021/12/09 11:39:11;;;;;;;35.70;14.73;;;;;;;5.35;71.10;98163.59;5103175;29;20059;-67
2021/12/09 11:42:16;;;;;;;29.05;15.02;;;;;;;5.58;72.75;98154.56;5102761;29;20424;-66
2021/12/09 11:45:29;;;;;;;31.92;16.17;;;;;;;6.04;69.73;98134.78;5103376;29;20050;-66
2021/12/09 11:48:20;;;;;;;29.60;14.32;;;;;;;6.20;68.14;98144.78;5103004;29;20127;-67
2021/12/09 11:51:10;;;;;;;25.08;12.95;;;;;;;6.00;69.23;98153.63;5102929;29;20757;-67
2021/12/09 11:54:03;;;;;;;27.52;12.00;;;;;;;4.85;72.80;98147.69;5103009;29;20183;-67
2021/12/09 11:57:17;;;;;;;25.17;11.23;;;;;;;5.37;72.23;98152.00;5102768;29;20052;-66
2021/12/09 12:07:43;;;;;;;21.50;10.02;;;;;;;5.19;71.55;98148.28;5098070;29;20067;-66
2021/12/09 12:13:49;;;;;;;16.27;7.50;;;;;;;5.52;69.54;98144.56;5102659;29;20622;-67
2021/12/09 12:20:17;;;;;;;22.10;7.38;;;;;;;5.08;71.09;98151.84;5118511;29;20189;-66
2021/12/09 12:23:36;;;;;;;23.70;8.30;;;;;;;4.91;73.07;98152.44;5107321;28;20047;-66
2021/12/09 12:27:09;;;;;;;19.00;8.05;;;;;;;5.25;70.03;98154.84;5119569;29;20054;-67
2021/12/09 12:34:36;;;;;;;16.88;6.47;;;;;;;5.79;67.80;98148.38;5109332;29;20169;-67
2021/12/09 12:40:58;;;;;;;17.42;5.22;;;;;;;5.81;67.20;98151.72;5095464;29;20059;-68
2021/12/09 12:43:59;;;;;;;14.60;4.80;;;;;;;5.23;67.59;98151.50;5082933;29;20410;-66
2021/12/09 12:49:46;;;;;;;19.63;6.10;;;;;;;5.14;69.38;98159.22;5090493;29;20707;-67
2021/12/09 12:52:38;;;;;;;15.35;5.18;;;;;;;4.90;70.21;98162.13;5096699;29;20048;-67
2021/12/09 12:55:30;;;;;;;13.90;5.78;;;;;;;4.95;70.24;98161.72;5085869;29;20054;-67
2021/12/09 12:58:20;;;;;;;14.93;5.95;;;;;;;4.84;70.29;98164.41;5085747;29;20051;-69
2021/12/09 13:01:17;;;;;;;14.10;6.15;;;;;;;4.53;71.68;98155.59;5087036;29;20063;-70
2021/12/09 13:05:19;;;;;;;15.05;6.75;;;;;;;5.46;68.98;98155.59;5087788;29;20120;-68
2021/12/09 13:14:01;;;;;;;18.48;6.55;;;;;;;5.02;69.97;98162.88;5086731;29;20058;-65
2021/12/09 13:17:00;;;;;;;19.42;6.03;;;;;;;5.36;69.02;98155.59;5085415;29;20047;-66
2021/12/09 13:20:07;;;;;;;20.73;6.53;;;;;;;5.50;68.69;98154.41;5087706;29;20096;-66
2021/12/09 13:23:27;;;;;;;13.40;6.00;;;;;;;5.18;69.50;98163.22;5107367;29;20134;-66
2021/12/09 13:26:29;;;;;;;19.52;6.25;;;;;;;5.79;67.54;98153.66;5088057;29;20105;-65
2021/12/09 13:29:37;;;;;;;18.38;6.00;;;;;;;6.11;67.45;98171.91;5097863;29;20059;-67
2021/12/09 13:36:25;;;;;;;18.38;6.28;;;;;;;5.76;67.04;98156.53;5105439;29;20514;-65
2021/12/09 13:45:54;;;;;;;14.70;5.72;;;;;;;6.21;65.76;98164.03;5105376;29;20144;-65
2021/12/09 13:48:49;;;;;;;21.40;6.53;;;;;;;6.46;65.03;98171.41;5105447;29;20143;-67
2021/12/09 13:54:36;;;;;;;17.73;5.97;;;;;;;6.44;66.46;98167.25;5105401;29;20058;-67
2021/12/09 13:57:43;;;;;;;14.23;6.15;;;;;;;5.93;66.02;98168.25;5104835;29;20568;-68
2021/12/09 14:00:46;;;;;;;21.08;5.75;;;;;;;6.37;65.49;98172.22;5104017;29;20075;-67
2021/12/09 14:03:36;;;;;;;24.05;6.15;;;;;;;6.35;65.12;98174.97;5104551;29;20043;-68
2021/12/09 14:06:26;;;;;;;25.40;7.47;;;;;;;5.74;67.09;98192.69;5104428;29;20581;-67
2021/12/09 14:09:17;;;;;;;19.35;6.43;;;;;;;6.32;65.73;98175.28;5103959;29;20174;-68
2021/12/09 14:12:08;;;;;;;19.83;7.00;;;;;;;6.27;65.60;98190.63;5104141;29;20059;-67
2021/12/09 14:15:05;;;;;;;21.83;6.40;;;;;;;6.14;66.22;98182.16;5104684;29;20090;-69
2021/12/09 14:18:03;;;;;;;27.75;6.45;;;;;;;6.14;63.95;98160.28;5104469;29;20051;-68
2021/12/09 14:20:54;;;;;;;18.30;6.55;;;;;;;6.52;64.75;98180.53;5104438;29;20519;-69
2021/12/09 14:23:44;;;;;;;20.23;6.38;;;;;;;6.31;64.30;98168.31;5104754;29;20055;-68